Terminal Aerodrome Forecast
Issued by NWS

Home | Current Version | Previous Version | Text Only | Print | Product List | Glossary On
Versions: 1 2 3 4 5 6 7 8 9 10 11 12 13 14 15 16 17 18 19 20 21
000
FTUS43 KDVN 272100 AAA
TAFBRL
TAF AMD
KBRL 272101Z 2721/2818 03005KT P6SM VCSH BKN120
     FM272300 VRB03KT P6SM BKN100
     FM280700 09003KT 6SM BR BKN040
     FM281000 11005KT 5SM TSRA BR BKN035CB
     FM281400 13007KT 6SM BR VCTS BKN025CB=

USA.gov is the U.S. government's official web portal to all federal, state and local government web resources and services.